Time;durP1;ratioP1;P1;durP2;ratioP2;P2;SDS_P1;SDS_P2;PMS_P1;PMS_P2;Temp;Humidity;BMP_temperature;BMP_pressure;BME280_temperature;BME280_humidity;BME280_pressure;Samples;Min_cycle;Max_cycle;Signal;HPM_P1;HPM_P2
2022/03/15 00:00:06;;;;;;;7.93;2.80;;;18.40;48.30;;;;;;4935520;29;20057;-82
2022/03/15 00:02:32;;;;;;;6.88;2.80;;;18.40;48.30;;;;;;4934651;29;20051;-82
2022/03/15 00:04:58;;;;;;;7.18;2.70;;;18.40;48.30;;;;;;4952338;29;20055;-82
2022/03/15 00:07:23;;;;;;;7.65;2.90;;;18.40;48.30;;;;;;4952343;29;20047;-82
2022/03/15 00:09:49;;;;;;;6.95;2.60;;;18.40;48.30;;;;;;4951490;29;20550;-82
2022/03/15 00:12:14;;;;;;;7.90;3.15;;;18.40;48.30;;;;;;4935225;29;20040;-82
2022/03/15 00:14:40;;;;;;;6.38;2.88;;;18.40;48.30;;;;;;4952352;29;20412;-82
2022/03/15 00:17:10;;;;;;;7.22;2.60;;;18.40;48.40;;;;;;4934783;29;20082;-82
2022/03/15 00:19:35;;;;;;;5.75;2.30;;;18.40;48.30;;;;;;4935047;29;20074;-82
2022/03/15 00:22:04;;;;;;;7.10;2.92;;;18.40;48.30;;;;;;4934435;29;20078;-82
2022/03/15 00:24:29;;;;;;;6.60;2.70;;;18.30;48.30;;;;;;4934998;29;20043;-82
2022/03/15 00:26:55;;;;;;;6.88;2.80;;;18.40;48.30;;;;;;4952291;29;20049;-82
2022/03/15 00:29:23;;;;;;;7.50;2.75;;;20.00;49.20;;;;;;4951831;29;20720;-82
2022/03/15 00:31:49;;;;;;;5.85;2.35;;;18.40;48.30;;;;;;4934946;29;20047;-82
2022/03/15 00:34:15;;;;;;;5.78;2.38;;;18.30;48.40;;;;;;4952337;29;20047;-82
2022/03/15 00:36:41;;;;;;;6.72;2.80;;;18.40;48.30;;;;;;4934294;29;20059;-82
2022/03/15 00:39:07;;;;;;;5.78;2.28;;;18.40;48.30;;;;;;4952046;29;20050;-83
2022/03/15 00:41:43;;;;;;;6.45;2.20;;;18.30;48.30;;;;;;4934859;29;20055;-82
2022/03/15 00:44:09;;;;;;;5.22;2.30;;;18.30;48.40;;;;;;4901247;29;20113;-83
2022/03/15 00:46:35;;;;;;;6.10;2.50;;;19.60;49.10;;;;;;4938436;29;20499;-82
2022/03/15 00:49:01;;;;;;;5.78;2.28;;;18.30;48.30;;;;;;4955599;29;20058;-82
2022/03/15 00:51:36;;;;;;;5.75;1.98;;;19.60;49.60;;;;;;4954839;29;20187;-83
2022/03/15 00:54:07;;;;;;;6.10;2.03;;;19.50;49.30;;;;;;4938114;29;20050;-82
2022/03/15 00:56:33;;;;;;;6.30;2.20;;;19.70;49.50;;;;;;4937919;29;20467;-82
2022/03/15 00:58:58;;;;;;;5.93;2.33;;;18.40;48.50;;;;;;4937261;29;20066;-82
2022/03/15 01:01:24;;;;;;;7.25;2.28;;;19.60;49.20;;;;;;4955513;29;20479;-82
2022/03/15 01:03:49;;;;;;;7.43;2.22;;;18.30;48.50;;;;;;4955237;29;20125;-82
2022/03/15 01:06:15;;;;;;;5.65;2.17;;;19.60;49.10;;;;;;4954751;29;20423;-82
2022/03/15 01:08:40;;;;;;;5.80;2.03;;;18.30;48.40;;;;;;4938113;29;20411;-82
2022/03/15 01:11:06;;;;;;;5.63;2.22;;;19.90;49.30;;;;;;4937403;29;20051;-81
2022/03/15 01:13:32;;;;;;;4.90;1.75;;;18.30;48.30;;;;;;4955373;29;20047;-82
2022/03/15 01:15:57;;;;;;;5.97;2.00;;;18.30;48.30;;;;;;4955050;29;20044;-82
2022/03/15 01:18:23;;;;;;;5.63;2.05;;;18.30;48.30;;;;;;4954568;29;20058;-82
2022/03/15 01:20:50;;;;;;;4.57;2.00;;;18.20;48.30;;;;;;4955446;29;20043;-82
2022/03/15 01:23:15;;;;;;;6.22;2.22;;;18.30;48.30;;;;;;4922248;29;20043;-82
2022/03/15 01:25:41;;;;;;;5.53;1.83;;;18.30;48.30;;;;;;4954626;29;20415;-82
2022/03/15 01:28:07;;;;;;;5.57;1.92;;;18.30;48.40;;;;;;4955422;29;20043;-81
2022/03/15 01:30:33;;;;;;;6.55;2.03;;;18.20;48.30;;;;;;4954953;29;20154;-81
2022/03/15 01:32:58;;;;;;;4.63;1.80;;;18.20;48.30;;;;;;4954299;29;20124;-82
2022/03/15 01:35:27;;;;;;;5.93;2.22;;;19.80;49.10;;;;;;4937499;29;20488;-82
2022/03/15 01:37:53;;;;;;;5.07;1.88;;;18.20;48.30;;;;;;4954937;29;20049;-82
2022/03/15 01:40:18;;;;;;;5.22;2.00;;;18.20;48.30;;;;;;4936642;29;20145;-82
2022/03/15 01:42:44;;;;;;;5.75;1.80;;;18.20;48.30;;;;;;4954714;29;20050;-82
2022/03/15 01:45:10;;;;;;;4.75;1.70;;;18.20;48.30;;;;;;4954481;29;20415;-82
2022/03/15 01:47:35;;;;;;;4.72;1.48;;;18.20;48.30;;;;;;4936300;29;20151;-82
2022/03/15 01:50:02;;;;;;;4.90;1.83;;;18.20;48.40;;;;;;4937205;29;20143;-82
2022/03/15 01:52:27;;;;;;;5.13;1.98;;;18.20;48.30;;;;;;4954684;29;20466;-82
2022/03/15 01:54:53;;;;;;;5.47;1.98;;;18.20;48.30;;;;;;4935919;29;20488;-82
2022/03/15 01:57:21;;;;;;;3.90;1.67;;;18.20;48.30;;;;;;4937098;29;20385;-82
2022/03/15 01:59:47;;;;;;;4.93;2.00;;;18.20;48.30;;;;;;4954597;29;20051;-82
2022/03/15 02:02:12;;;;;;;5.30;2.03;;;18.20;48.40;;;;;;4936806;29;20057;-82
2022/03/15 02:04:38;;;;;;;4.07;1.52;;;18.20;48.40;;;;;;4954575;29;20495;-83
2022/03/15 02:07:12;;;;;;;4.55;1.85;;;18.20;48.30;;;;;;4954692;29;20039;-82
2022/03/15 02:09:38;;;;;;;4.68;1.95;;;18.20;48.30;;;;;;4936993;29;20451;-82
2022/03/15 02:12:04;;;;;;;5.30;1.92;;;18.20;48.30;;;;;;4954329;29;20515;-82
2022/03/15 02:14:30;;;;;;;5.00;1.98;;;18.10;48.20;;;;;;4936164;29;20051;-82
2022/03/15 02:16:55;;;;;;;5.03;2.10;;;18.20;48.30;;;;;;4954260;29;20518;-83
2022/03/15 02:19:21;;;;;;;5.50;1.60;;;18.40;48.40;;;;;;4936318;29;20063;-84
2022/03/15 02:21:47;;;;;;;5.00;1.98;;;18.10;48.30;;;;;;4953420;29;20142;-82
2022/03/15 02:24:13;;;;;;;5.22;1.95;;;18.20;48.30;;;;;;4953789;29;20143;-82
2022/03/15 02:26:39;;;;;;;3.33;1.33;;;18.10;48.30;;;;;;4936902;29;20043;-82
2022/03/15 02:29:05;;;;;;;3.85;1.65;;;19.80;49.20;;;;;;4936200;29;20078;-82
2022/03/15 02:31:30;;;;;;;4.80;1.67;;;18.10;48.30;;;;;;4936679;29;20047;-82
2022/03/15 02:33:56;;;;;;;4.65;1.85;;;18.10;48.30;;;;;;4953941;29;20039;-82
2022/03/15 02:36:21;;;;;;;4.70;1.67;;;18.10;48.30;;;;;;4935710;29;20145;-82
2022/03/15 02:38:47;;;;;;;4.63;1.65;;;18.10;48.30;;;;;;4953751;29;20043;-82
2022/03/15 02:41:13;;;;;;;4.72;1.50;;;18.10;48.40;;;;;;4936281;29;20054;-82
2022/03/15 02:43:42;;;;;;;4.32;1.45;;;18.10;48.30;;;;;;4935945;29;20097;-82
2022/03/15 02:46:11;;;;;;;4.22;1.48;;;18.50;48.50;;;;;;4917332;29;20056;-82
2022/03/15 02:48:37;;;;;;;4.22;1.67;;;18.10;48.30;;;;;;4934591;29;20051;-82
2022/03/15 02:51:07;;;;;;;4.15;1.42;;;18.10;48.30;;;;;;4933461;29;20054;-82
2022/03/15 02:53:33;;;;;;;4.93;1.27;;;18.10;48.30;;;;;;4918144;29;20098;-82
2022/03/15 02:55:59;;;;;;;3.33;1.10;;;18.10;48.30;;;;;;4934382;29;20048;-82
2022/03/15 02:58:24;;;;;;;4.15;1.58;;;18.20;48.40;;;;;;4931971;29;20050;-82
2022/03/15 03:00:50;;;;;;;3.80;1.48;;;18.10;48.30;;;;;;4934288;29;20047;-82
2022/03/15 03:03:16;;;;;;;4.00;1.55;;;18.10;48.30;;;;;;4934352;29;20075;-82
2022/03/15 03:05:42;;;;;;;4.15;1.50;;;18.10;48.30;;;;;;4933570;29;20047;-82
2022/03/15 03:08:07;;;;;;;4.28;1.60;;;18.10;48.30;;;;;;4933455;29;20043;-82
2022/03/15 03:10:35;;;;;;;3.60;1.45;;;18.00;48.20;;;;;;4933578;29;20055;-81
2022/03/15 03:13:01;;;;;;;4.28;1.50;;;18.10;48.40;;;;;;4932568;29;20079;-82
2022/03/15 03:15:26;;;;;;;3.83;1.25;;;18.20;48.70;;;;;;4932496;29;20475;-82
2022/03/15 03:17:52;;;;;;;4.03;1.48;;;18.00;48.30;;;;;;4933418;29;20039;-82
2022/03/15 03:20:21;;;;;;;4.07;1.17;;;18.10;48.30;;;;;;4933808;29;20057;-82
2022/03/15 03:22:47;;;;;;;3.72;1.33;;;18.00;48.20;;;;;;4916561;29;20047;-82
2022/03/15 03:25:13;;;;;;;3.67;1.17;;;19.30;49.00;;;;;;4932962;29;20139;-82
2022/03/15 03:27:39;;;;;;;4.22;1.40;;;18.00;48.30;;;;;;4916576;29;20404;-82
2022/03/15 03:30:07;;;;;;;4.22;1.48;;;18.00;48.30;;;;;;4916589;29;20125;-82
2022/03/15 03:32:34;;;;;;;4.00;1.48;;;18.00;48.40;;;;;;4931814;29;20135;-82
2022/03/15 03:35:04;;;;;;;4.13;1.30;;;18.00;48.30;;;;;;4933509;29;20401;-82
2022/03/15 03:37:30;;;;;;;4.32;1.75;;;18.00;49.00;;;;;;4932276;29;20048;-83
2022/03/15 03:39:55;;;;;;;2.83;1.15;;;18.00;48.20;;;;;;4931485;29;20103;-82
2022/03/15 03:42:21;;;;;;;3.88;1.30;;;18.00;48.30;;;;;;4932631;29;20056;-82
2022/03/15 03:44:47;;;;;;;3.40;1.35;;;18.00;48.30;;;;;;4932025;29;20146;-82
2022/03/15 03:47:12;;;;;;;2.47;1.10;;;18.00;48.30;;;;;;4915874;29;20146;-82
2022/03/15 03:49:38;;;;;;;3.47;1.10;;;18.00;48.30;;;;;;4932474;29;20054;-82
2022/03/15 03:52:05;;;;;;;4.65;1.33;;;18.00;48.30;;;;;;4932112;29;20052;-82
2022/03/15 03:54:31;;;;;;;3.60;1.20;;;18.00;48.30;;;;;;4932461;29;20064;-82
2022/03/15 03:56:57;;;;;;;3.22;1.35;;;18.70;48.60;;;;;;4933545;29;20040;-82
2022/03/15 03:59:23;;;;;;;3.63;1.27;;;18.60;48.60;;;;;;4933452;29;20047;-82
2022/03/15 04:01:49;;;;;;;3.05;1.25;;;18.00;48.30;;;;;;4931407;29;20151;-82
2022/03/15 04:04:14;;;;;;;3.90;1.48;;;17.90;48.20;;;;;;4933475;29;20499;-82
2022/03/15 04:06:40;;;;;;;3.35;1.10;;;17.90;48.20;;;;;;4931717;29;20052;-82
2022/03/15 04:09:06;;;;;;;3.70;1.20;;;18.00;48.30;;;;;;4932539;29;20040;-82
2022/03/15 04:11:32;;;;;;;3.33;1.60;;;18.00;48.30;;;;;;4933212;29;20047;-82
2022/03/15 04:14:01;;;;;;;4.07;1.17;;;18.00;48.30;;;;;;4932785;29;20084;-82
2022/03/15 04:16:27;;;;;;;3.30;1.20;;;17.90;48.20;;;;;;4933209;29;20059;-82
2022/03/15 04:18:52;;;;;;;4.38;1.42;;;18.00;48.30;;;;;;4933681;29;20044;-82
2022/03/15 04:21:18;;;;;;;3.45;1.33;;;18.00;48.30;;;;;;4936344;29;20048;-82
2022/03/15 04:23:45;;;;;;;3.40;1.10;;;17.90;48.20;;;;;;4937107;29;20622;-82
2022/03/15 04:26:11;;;;;;;3.83;1.50;;;17.90;48.20;;;;;;4935627;29;20058;-81
2022/03/15 04:28:38;;;;;;;3.03;1.30;;;17.90;48.20;;;;;;4935068;29;20055;-82
2022/03/15 04:31:04;;;;;;;3.30;1.20;;;17.90;48.40;;;;;;4936737;29;20057;-81
2022/03/15 04:33:29;;;;;;;2.92;1.20;;;17.90;48.20;;;;;;4936788;29;20047;-82
2022/03/15 04:35:55;;;;;;;3.53;1.23;;;17.90;48.20;;;;;;4935991;29;20048;-82
2022/03/15 04:38:21;;;;;;;3.47;1.27;;;17.90;48.20;;;;;;4937031;29;20046;-82
2022/03/15 04:40:47;;;;;;;2.60;1.10;;;17.90;48.30;;;;;;4936698;29;20058;-82
2022/03/15 04:43:12;;;;;;;3.45;1.40;;;17.90;48.20;;;;;;4934567;29;20444;-82
2022/03/15 04:45:38;;;;;;;3.22;1.10;;;17.90;48.20;;;;;;4948054;29;20055;-82
2022/03/15 04:48:04;;;;;;;4.10;1.25;;;17.90;48.20;;;;;;4956086;29;20047;-82
2022/03/15 04:50:30;;;;;;;3.65;1.17;;;17.90;48.20;;;;;;4937902;29;20113;-82
2022/03/15 04:52:56;;;;;;;2.97;1.10;;;17.90;48.20;;;;;;4955808;29;20491;-82
2022/03/15 04:55:22;;;;;;;3.63;1.15;;;17.90;48.30;;;;;;4955226;29;20125;-82
2022/03/15 04:57:47;;;;;;;3.13;0.90;;;17.90;48.20;;;;;;4937459;29;20053;-81
2022/03/15 05:00:13;;;;;;;2.83;1.00;;;17.80;48.20;;;;;;4955444;29;20043;-81
2022/03/15 05:02:44;;;;;;;3.55;1.40;;;17.80;48.20;;;;;;4938293;29;20051;-83
2022/03/15 05:05:10;;;;;;;3.20;1.20;;;17.90;48.20;;;;;;4937798;29;20047;-82
2022/03/15 05:07:41;;;;;;;2.55;1.00;;;17.90;48.20;;;;;;4938160;29;20392;-82
2022/03/15 05:12:51;;;;;;;3.00;1.17;;;17.80;48.20;;;;;;4938123;29;20051;-83
2022/03/15 05:15:17;;;;;;;4.60;1.27;;;18.00;48.30;;;;;;4937492;29;20098;-83
2022/03/15 05:17:43;;;;;;;2.58;1.08;;;17.80;48.20;;;;;;4922001;29;20157;-82
2022/03/15 05:20:10;;;;;;;4.10;1.10;;;17.80;48.20;;;;;;4955319;29;20491;-82
2022/03/15 05:22:38;;;;;;;3.88;1.30;;;17.80;48.20;;;;;;4955172;29;20051;-82
2022/03/15 05:25:07;;;;;;;2.92;1.10;;;17.80;48.20;;;;;;4954596;29;20063;-83
2022/03/15 05:27:33;;;;;;;3.05;1.20;;;17.80;48.20;;;;;;4955029;29;20043;-83
2022/03/15 05:30:02;;;;;;;2.70;1.10;;;19.00;48.80;;;;;;4954210;28;20047;-83
2022/03/15 05:32:28;;;;;;;3.30;1.20;;;17.80;48.20;;;;;;4937056;29;20047;-82
2022/03/15 05:34:54;;;;;;;2.38;1.05;;;17.80;48.20;;;;;;4954666;29;20163;-82
2022/03/15 05:37:20;;;;;;;2.85;1.30;;;17.80;48.20;;;;;;4954991;29;20039;-83
2022/03/15 05:39:48;;;;;;;2.72;1.13;;;17.80;48.20;;;;;;4954469;29;20055;-82
2022/03/15 05:42:14;;;;;;;2.45;1.00;;;17.80;48.30;;;;;;4954831;29;20408;-83
2022/03/15 05:44:42;;;;;;;2.83;1.00;;;17.80;48.20;;;;;;4937166;29;20110;-83
2022/03/15 05:47:11;;;;;;;3.60;1.10;;;17.80;48.20;;;;;;4936557;29;20508;-83
2022/03/15 05:49:39;;;;;;;2.85;1.30;;;17.80;48.20;;;;;;4954752;29;20051;-83
2022/03/15 05:52:07;;;;;;;2.45;1.10;;;17.80;48.20;;;;;;4937246;29;20047;-83
2022/03/15 05:54:34;;;;;;;4.68;1.17;;;17.80;48.20;;;;;;4936392;29;20094;-83
2022/03/15 05:56:59;;;;;;;4.25;1.40;;;17.80;48.20;;;;;;4954352;29;20480;-83
2022/03/15 05:59:25;;;;;;;2.75;1.20;;;17.80;48.20;;;;;;4936477;29;20098;-83
2022/03/15 06:01:57;;;;;;;3.45;1.27;;;17.80;48.20;;;;;;4954635;29;20047;-83
2022/03/15 06:04:26;;;;;;;2.87;1.00;;;17.80;48.20;;;;;;4937306;29;20403;-84
2022/03/15 06:06:55;;;;;;;2.45;0.95;;;17.80;48.20;;;;;;4953884;29;20121;-83
2022/03/15 06:09:23;;;;;;;2.78;1.10;;;19.10;48.90;;;;;;4937447;29;20114;-83
2022/03/15 06:11:49;;;;;;;1.65;0.88;;;17.70;48.10;;;;;;4954338;29;20503;-84
2022/03/15 06:14:15;;;;;;;2.83;1.15;;;17.80;48.20;;;;;;4953355;29;20089;-84
2022/03/15 06:16:41;;;;;;;3.25;1.20;;;17.70;48.20;;;;;;4954253;29;20077;-83
2022/03/15 06:19:06;;;;;;;2.47;0.90;;;17.80;48.20;;;;;;4937156;29;20043;-83
2022/03/15 06:21:32;;;;;;;2.42;1.08;;;17.70;48.10;;;;;;4953501;29;20050;-83
2022/03/15 06:23:58;;;;;;;3.25;1.05;;;17.70;48.20;;;;;;4954321;29;20139;-84
2022/03/15 06:26:26;;;;;;;2.70;0.98;;;17.70;48.10;;;;;;4954261;29;20046;-83
2022/03/15 06:28:53;;;;;;;3.20;1.30;;;18.70;48.70;;;;;;4935825;29;20558;-84
2022/03/15 06:31:18;;;;;;;2.63;1.00;;;17.70;48.10;;;;;;4928137;29;20044;-84
2022/03/15 06:33:46;;;;;;;2.25;0.95;;;17.70;48.10;;;;;;4932144;29;20051;-84
2022/03/15 06:36:12;;;;;;;2.60;1.00;;;17.70;48.10;;;;;;4953410;29;20102;-83
2022/03/15 06:38:41;;;;;;;2.70;1.10;;;17.70;48.10;;;;;;4953587;29;20051;-83
2022/03/15 06:41:08;;;;;;;2.45;1.00;;;17.70;48.10;;;;;;4936300;29;20137;-84
2022/03/15 06:43:34;;;;;;;2.40;1.10;;;17.70;48.10;;;;;;4953048;29;20102;-84
2022/03/15 06:46:00;;;;;;;2.10;0.90;;;17.70;48.10;;;;;;4935847;29;20142;-84
2022/03/15 06:48:26;;;;;;;2.35;1.02;;;17.70;48.10;;;;;;4926374;29;20134;-84
2022/03/15 06:50:53;;;;;;;2.60;1.05;;;17.70;48.10;;;;;;4950785;29;20086;-84
2022/03/15 06:53:21;;;;;;;2.45;1.10;;;17.70;48.10;;;;;;4936024;29;20051;-84
2022/03/15 06:55:47;;;;;;;2.08;0.90;;;17.70;48.20;;;;;;4935038;29;20497;-84
2022/03/15 06:58:17;;;;;;;2.08;0.82;;;17.70;48.20;;;;;;4936220;29;20166;-84
2022/03/15 07:00:55;;;;;;;3.22;1.30;;;17.70;48.10;;;;;;4935016;29;20063;-84
2022/03/15 07:03:36;;;;;;;2.53;1.30;;;17.90;48.90;;;;;;4951837;29;20515;-84
2022/03/15 07:06:02;;;;;;;2.35;1.00;;;17.20;48.20;;;;;;4950407;29;20048;-84
2022/03/15 07:08:27;;;;;;;3.72;1.45;;;17.70;48.20;;;;;;4906003;29;20822;-84
2022/03/15 07:10:53;;;;;;;3.15;1.17;;;17.70;48.20;;;;;;4952267;29;20051;-84
2022/03/15 07:13:22;;;;;;;2.03;0.95;;;17.70;48.20;;;;;;4935741;29;20427;-85
2022/03/15 07:15:47;;;;;;;1.90;0.90;;;17.70;48.20;;;;;;4935195;29;20669;-84
2022/03/15 07:18:16;;;;;;;2.53;0.90;;;17.70;48.20;;;;;;4952481;29;20093;-84
2022/03/15 07:20:41;;;;;;;1.98;1.05;;;17.60;48.10;;;;;;4935565;29;20414;-84
2022/03/15 07:23:07;;;;;;;3.03;1.15;;;17.70;48.10;;;;;;4935606;29;20130;-84
2022/03/15 07:25:32;;;;;;;2.10;0.80;;;19.10;48.90;;;;;;4952419;29;20411;-85
2022/03/15 07:27:58;;;;;;;2.38;0.80;;;17.60;48.10;;;;;;4953000;29;20079;-84
2022/03/15 07:30:24;;;;;;;2.35;1.00;;;17.70;48.20;;;;;;4935699;29;20043;-88
2022/03/15 07:32:49;;;;;;;1.75;0.80;;;17.70;48.20;;;;;;4937408;29;20047;-90
2022/03/15 07:35:15;;;;;;;2.70;1.10;;;17.60;48.10;;;;;;4937617;29;20051;-91
2022/03/15 07:37:49;;;;;;;2.15;1.10;;;17.60;48.10;;;;;;4938204;29;20138;-92
2022/03/15 07:40:14;;;;;;;2.92;1.42;;;17.70;48.20;;;;;;4937953;29;20039;-92
2022/03/15 07:42:40;;;;;;;2.20;1.00;;;17.60;48.10;;;;;;4937659;29;20102;-91
2022/03/15 07:45:06;;;;;;;2.30;1.10;;;17.60;48.10;;;;;;4931111;29;20142;-92
2022/03/15 07:47:31;;;;;;;2.25;0.88;;;17.60;48.10;;;;;;4936567;29;20052;-88
2022/03/15 07:49:57;;;;;;;1.85;0.90;;;17.60;48.10;;;;;;4917086;29;20059;-90
2022/03/15 07:52:26;;;;;;;2.58;0.98;;;17.60;48.10;;;;;;4903860;28;20047;-88
2022/03/15 07:54:52;;;;;;;1.05;0.70;;;17.60;48.20;;;;;;4948735;29;20480;-88
2022/03/15 07:57:17;;;;;;;1.98;1.00;;;17.60;48.10;;;;;;4953374;29;20039;-89
2022/03/15 07:59:43;;;;;;;2.40;1.13;;;17.60;48.10;;;;;;4952523;29;20479;-88
2022/03/15 08:02:14;;;;;;;3.03;0.90;;;17.60;48.10;;;;;;4936351;29;20035;-88
2022/03/15 08:04:40;;;;;;;1.60;0.73;;;18.30;48.50;;;;;;4952492;29;20070;-89
2022/03/15 08:07:05;;;;;;;2.50;0.90;;;17.60;48.10;;;;;;4935536;29;20095;-89
2022/03/15 08:09:31;;;;;;;1.58;0.80;;;17.60;48.10;;;;;;4952897;29;20139;-88
2022/03/15 08:12:00;;;;;;;3.08;1.20;;;17.60;48.10;;;;;;4948598;29;20054;-89
2022/03/15 08:14:28;;;;;;;1.98;1.00;;;17.60;48.20;;;;;;4952522;29;20043;-90
2022/03/15 08:16:54;;;;;;;2.30;0.95;;;17.60;48.10;;;;;;4933686;29;20056;-88
2022/03/15 08:19:20;;;;;;;2.00;0.80;;;17.60;48.10;;;;;;4941365;29;20048;-88
2022/03/15 08:21:46;;;;;;;1.80;0.93;;;17.60;48.20;;;;;;4916412;29;20063;-88
2022/03/15 08:24:11;;;;;;;1.92;0.98;;;17.60;48.10;;;;;;4949911;29;20044;-87
2022/03/15 08:26:38;;;;;;;2.30;0.90;;;17.60;48.10;;;;;;4934331;29;20047;-88
2022/03/15 08:29:06;;;;;;;1.30;0.73;;;18.70;48.70;;;;;;4933377;29;20055;-88
2022/03/15 08:31:32;;;;;;;2.15;0.90;;;18.20;48.50;;;;;;4939162;29;20158;-85
2022/03/15 08:33:58;;;;;;;2.05;0.80;;;17.60;48.10;;;;;;4916254;29;20079;-86
2022/03/15 08:36:23;;;;;;;2.05;1.00;;;17.50;48.10;;;;;;4932961;29;20002;-87
2022/03/15 08:38:49;;;;;;;2.42;1.02;;;17.60;48.20;;;;;;4941425;29;20050;-90
2022/03/15 08:41:15;;;;;;;2.20;1.20;;;18.40;48.70;;;;;;4942121;29;20054;-90
2022/03/15 08:46:45;;;;;;;5.03;2.15;;;18.30;48.60;;;;;;4932205;29;20059;-85
2022/03/15 08:49:11;;;;;;;6.30;2.50;;;19.10;49.20;;;;;;4893130;29;20117;-86
2022/03/15 08:55:18;;;;;;;9.88;3.33;;;17.40;48.30;;;;;;4945277;29;20179;-86
2022/03/15 09:19:18;;;;;;;9.93;5.43;;;18.50;48.70;;;;;;4903358;29;20059;-83
2022/03/15 09:53:49;;;;;;;7.18;4.03;;;17.60;48.20;;;;;;4980217;28;20099;-90
2022/03/15 10:03:48;;;;;;;6.60;3.08;;;16.30;47.30;;;;;;4972177;28;20105;-88
2022/03/15 10:06:32;;;;;;;7.18;3.42;;;17.80;48.30;;;;;;4974769;28;20054;-89
2022/03/15 10:10:01;;;;;;;7.45;3.38;;;17.80;49.20;;;;;;4940605;28;20143;-88
2022/03/15 10:15:35;;;;;;;5.80;2.55;;;17.80;48.60;;;;;;4933507;29;20055;-87
2022/03/15 10:21:58;;;;;;;5.85;2.70;;;18.20;48.30;;;;;;4934506;29;20087;-88
2022/03/15 10:36:08;;;;;;;10.40;7.13;;;17.80;47.90;;;;;;4959162;28;20232;-92
2022/03/15 10:39:39;;;;;;;;;;;;;;;;;;;;;
2022/03/15 10:42:32;;;;;;;11.02;8.02;;;19.00;48.70;;;;;;4912945;29;20153;-90
2022/03/15 10:54:47;;;;;;;44.30;19.08;;;18.60;48.30;;;;;;4858334;29;20089;-89
2022/03/15 11:07:06;;;;;;;36.80;15.88;;;17.90;48.10;;;;;;4877398;29;20110;-90
2022/03/15 11:18:34;;;;;;;34.58;12.82;;;18.20;48.10;;;;;;4249208;26;20389;-87
2022/03/15 11:21:40;;;;;;;35.13;12.93;;;17.20;48.20;;;;;;4903688;29;20089;-87
2022/03/15 11:24:12;;;;;;;29.10;11.70;;;19.30;49.20;;;;;;4966888;28;20059;-87
2022/03/15 11:27:25;;;;;;;27.95;11.55;;;18.40;48.40;;;;;;4925570;28;20050;-86
2022/03/15 11:30:34;;;;;;;23.48;10.60;;;18.00;48.40;;;;;;4954661;28;20128;-87
2022/03/15 11:33:24;;;;;;;25.58;10.65;;;18.30;48.30;;;;;;4953971;28;20042;-86
2022/03/15 11:36:03;;;;;;;25.90;10.23;;;18.50;48.40;;;;;;4954012;28;20046;-86
2022/03/15 11:38:50;;;;;;;21.77;10.23;;;18.40;48.40;;;;;;4954915;28;20043;-86
2022/03/15 11:41:29;;;;;;;21.73;10.55;;;18.40;48.30;;;;;;4955120;28;20051;-86
2022/03/15 11:44:31;;;;;;;25.08;10.10;;;19.90;49.60;;;;;;4923496;28;20042;-86
2022/03/15 11:47:38;;;;;;;;;;;18.30;48.30;;;;;;4925391;28;20055;-85
2022/03/15 11:50:25;;;;;;;20.88;8.88;;;18.30;48.20;;;;;;4953958;28;19977;-86
2022/03/15 11:55:48;;;;;;;24.65;9.85;;;18.30;48.20;;;;;;4975753;23;20061;-85
2022/03/15 11:58:24;;;;;;;20.83;8.40;;;18.30;48.20;;;;;;4905441;29;20126;-86
2022/03/15 12:00:57;;;;;;;20.02;9.45;;;19.10;48.60;;;;;;4939888;28;20055;-85
2022/03/15 12:03:30;;;;;;;18.80;8.18;;;18.30;48.20;;;;;;4960036;28;20530;-85
2022/03/15 12:05:57;;;;;;;17.45;8.35;;;18.30;48.20;;;;;;4949371;28;20071;-85
2022/03/15 12:08:23;;;;;;;20.25;8.45;;;18.30;48.20;;;;;;4953628;28;20058;-86
2022/03/15 12:10:56;;;;;;;21.08;8.73;;;18.30;48.20;;;;;;4954037;28;20047;-85
2022/03/15 12:13:46;;;;;;;16.92;8.10;;;18.30;48.20;;;;;;4950811;28;20057;-86
2022/03/15 12:16:13;;;;;;;18.08;8.07;;;18.30;48.20;;;;;;4959242;28;20043;-86
2022/03/15 12:18:48;;;;;;;17.50;8.55;;;18.30;48.20;;;;;;4934804;29;20446;-86
2022/03/15 12:21:27;;;;;;;18.40;7.97;;;18.30;48.90;;;;;;4952207;29;20048;-86
2022/03/15 12:23:53;;;;;;;18.67;7.82;;;18.20;48.20;;;;;;4936124;29;20543;-85
2022/03/15 12:26:27;;;;;;;17.13;7.25;;;18.30;48.20;;;;;;4952057;29;20035;-85
2022/03/15 12:29:02;;;;;;;17.67;7.60;;;18.30;48.30;;;;;;4935593;29;20051;-85
2022/03/15 12:31:40;;;;;;;18.83;7.93;;;18.30;48.20;;;;;;4935105;29;20047;-86
2022/03/15 12:34:08;;;;;;;15.63;7.78;;;18.30;48.30;;;;;;4940752;28;20117;-86
2022/03/15 12:36:57;;;;;;;17.50;7.38;;;18.20;48.20;;;;;;4956784;28;20466;-87
2022/03/15 12:39:53;;;;;;;17.67;7.07;;;18.30;48.30;;;;;;4967557;28;20532;-86
2022/03/15 12:42:32;;;;;;;14.00;6.75;;;18.20;48.40;;;;;;4938386;28;20055;-88
2022/03/15 12:45:16;;;;;;;20.13;7.60;;;18.30;49.00;;;;;;4939299;28;20116;-87
2022/03/15 12:48:17;;;;;;;14.93;5.55;;;16.90;47.60;;;;;;4901852;28;20781;-86
2022/03/15 12:50:57;;;;;;;16.17;6.78;;;18.40;48.40;;;;;;4896724;28;20047;-87
2022/03/15 12:53:48;;;;;;;19.67;6.43;;;18.20;48.70;;;;;;4906080;28;20047;-87
2022/03/15 12:56:20;;;;;;;14.82;6.20;;;18.80;48.70;;;;;;4974113;28;20406;-87
2022/03/15 12:58:55;;;;;;;12.80;6.28;;;18.50;48.60;;;;;;4972657;28;20070;-86
2022/03/15 13:01:20;;;;;;;14.30;5.72;;;18.40;48.50;;;;;;4950115;28;20059;-85
2022/03/15 13:04:15;;;;;;;12.68;5.55;;;17.80;48.50;;;;;;4948143;29;20488;-87
2022/03/15 13:10:32;;;;;;;11.02;4.97;;;18.80;48.70;;;;;;4904859;28;20060;-87
2022/03/15 13:13:18;;;;;;;13.55;4.40;;;19.90;49.50;;;;;;4961975;28;20031;-86
2022/03/15 13:16:11;;;;;;;15.23;5.40;;;18.30;48.50;;;;;;4936799;28;20161;-87
2022/03/15 13:18:38;;;;;;;13.68;4.90;;;19.20;48.90;;;;;;4968109;28;20039;-87
2022/03/15 13:21:17;;;;;;;13.25;5.47;;;18.90;49.80;;;;;;4957273;28;20372;-86
2022/03/15 13:24:10;;;;;;;19.08;6.47;;;18.80;48.80;;;;;;4972732;23;20582;-89
2022/03/15 13:27:03;;;;;;;51.72;18.65;;;18.20;48.90;;;;;;4957234;28;20050;-86
2022/03/15 13:30:10;;;;;;;77.60;32.38;;;18.30;48.50;;;;;;4973846;28;20114;-89
2022/03/15 13:33:00;;;;;;;;;;;18.80;48.60;;;;;;4954200;28;20054;-85
2022/03/15 13:35:26;;;;;;;68.85;26.95;;;18.90;48.70;;;;;;4974174;28;19926;-86
2022/03/15 13:37:53;;;;;;;67.10;26.27;;;18.60;49.20;;;;;;4955906;28;20053;-88
2022/03/15 13:40:25;;;;;;;64.03;25.02;;;19.00;49.20;;;;;;4957931;28;20216;-84
2022/03/15 13:42:57;;;;;;;66.72;24.02;;;18.00;48.70;;;;;;4943068;28;20042;-83
2022/03/15 13:49:24;;;;;;;59.95;24.67;;;18.20;48.50;;;;;;4958463;28;20051;-82
2022/03/15 13:52:07;;;;;;;111.18;39.05;;;18.40;48.70;;;;;;4970455;28;20121;-83
2022/03/15 13:55:09;;;;;;;125.53;45.35;;;17.30;48.20;;;;;;4937136;29;20622;-82
2022/03/15 13:57:47;;;;;;;100.18;40.53;;;18.40;48.70;;;;;;4955834;29;20110;-85
2022/03/15 14:00:28;;;;;;;105.40;38.13;;;19.50;49.50;;;;;;5240797;23;20055;-82
2022/03/15 14:07:05;;;;;;;74.35;25.42;;;17.80;48.60;;;;;;4958670;29;20042;-88
2022/03/15 14:09:45;;;;;;;66.50;24.90;;;16.70;48.30;;;;;;4955263;29;20262;-88
2022/03/15 14:12:28;;;;;;;63.53;25.40;;;17.70;49.40;;;;;;4938336;29;20066;-87
2022/03/15 14:15:14;;;;;;;70.53;25.23;;;20.20;50.40;;;;;;4955247;29;20051;-87
2022/03/15 14:17:54;;;;;;;66.80;25.77;;;19.10;50.80;;;;;;4937095;29;20051;-86
2022/03/15 14:20:41;;;;;;;69.03;26.33;;;18.50;49.50;;;;;;4936790;29;20055;-87
2022/03/15 14:23:08;;;;;;;58.78;24.02;;;20.20;50.70;;;;;;4936937;29;20089;-81
2022/03/15 14:25:35;;;;;;;59.17;23.63;;;18.30;49.40;;;;;;4936730;29;20047;-80
2022/03/15 14:28:02;;;;;;;54.80;22.42;;;18.50;49.10;;;;;;4953451;29;20123;-82
2022/03/15 14:30:28;;;;;;;51.17;21.45;;;19.40;49.30;;;;;;4953819;29;20098;-81
2022/03/15 14:32:56;;;;;;;55.65;20.42;;;20.10;49.90;;;;;;4934546;28;20079;-78
2022/03/15 14:35:56;;;;;;;55.58;20.10;;;18.60;48.70;;;;;;4956174;28;20059;-79
2022/03/15 14:38:23;;;;;;;47.47;18.45;;;18.60;49.20;;;;;;4924488;29;20058;-80
2022/03/15 14:41:17;;;;;;;53.30;18.77;;;19.50;49.80;;;;;;4940181;29;20058;-79
2022/03/15 14:43:43;;;;;;;43.58;16.50;;;18.70;49.40;;;;;;4953010;29;20053;-79
2022/03/15 14:46:11;;;;;;;38.80;15.95;;;18.30;48.90;;;;;;4952772;28;20047;-79
2022/03/15 14:48:54;;;;;;;42.15;17.13;;;18.70;49.60;;;;;;4961025;28;20046;-77
2022/03/15 14:59:08;;;;;;;31.13;12.80;;;17.60;48.30;;;;;;4887584;29;20064;-89
2022/03/15 15:02:02;;;;;;;30.83;13.18;;;20.00;49.50;;;;;;4896187;29;20475;-89
2022/03/15 15:13:20;;;;;;;29.73;12.52;;;18.00;49.00;;;;;;4949909;29;20093;-90
2022/03/15 15:15:52;;;;;;;28.20;10.63;;;18.50;49.10;;;;;;4934627;29;20107;-86
2022/03/15 15:18:27;;;;;;;26.55;11.32;;;18.90;49.60;;;;;;4921344;29;20043;-86
2022/03/15 15:20:56;;;;;;;30.40;12.13;;;19.60;50.60;;;;;;4951865;29;20094;-90
2022/03/15 15:23:22;;;;;;;29.83;11.52;;;20.00;51.10;;;;;;4920506;29;20054;-90
2022/03/15 15:25:55;;;;;;;28.55;12.05;;;19.70;50.40;;;;;;4946308;29;20055;-91
2022/03/15 15:28:29;;;;;;;24.75;10.90;;;18.70;49.70;;;;;;4937613;29;20399;-91